sensor_id;sensor_type;location;lat;lon;timestamp;P1;durP1;ratioP1;P2;durP2;ratioP2
4311;SDS011;2169;49.086;9.284;2023-08-17T00:02:20;3.90;;;3.10;;
4311;SDS011;2169;49.086;9.284;2023-08-17T00:04:47;8.43;;;2.73;;
4311;SDS011;2169;49.086;9.284;2023-08-17T00:07:14;3.37;;;3.10;;
4311;SDS011;2169;49.086;9.284;2023-08-17T00:09:41;7.73;;;3.27;;
4311;SDS011;2169;49.086;9.284;2023-08-17T00:12:08;5.80;;;4.23;;
4311;SDS011;2169;49.086;9.284;2023-08-17T00:14:36;5.13;;;4.30;;
4311;SDS011;2169;49.086;9.284;2023-08-17T00:17:03;5.00;;;3.40;;
4311;SDS011;2169;49.086;9.284;2023-08-17T00:19:30;4.20;;;3.80;;
4311;SDS011;2169;49.086;9.284;2023-08-17T00:21:57;3.40;;;3.10;;
4311;SDS011;2169;49.086;9.284;2023-08-17T00:24:23;3.50;;;3.20;;
4311;SDS011;2169;49.086;9.284;2023-08-17T00:26:50;5.43;;;3.60;;
4311;SDS011;2169;49.086;9.284;2023-08-17T00:29:17;3.40;;;3.10;;
4311;SDS011;2169;49.086;9.284;2023-08-17T00:31:46;4.87;;;3.60;;
4311;SDS011;2169;49.086;9.284;2023-08-17T00:34:13;4.77;;;4.10;;
4311;SDS011;2169;49.086;9.284;2023-08-17T00:36:40;10.70;;;4.40;;
4311;SDS011;2169;49.086;9.284;2023-08-17T00:39:07;3.00;;;2.80;;
4311;SDS011;2169;49.086;9.284;2023-08-17T00:41:34;5.53;;;3.83;;
4311;SDS011;2169;49.086;9.284;2023-08-17T00:44:01;2.57;;;2.40;;
4311;SDS011;2169;49.086;9.284;2023-08-17T00:46:27;7.43;;;4.87;;
4311;SDS011;2169;49.086;9.284;2023-08-17T00:48:57;5.30;;;4.20;;
4311;SDS011;2169;49.086;9.284;2023-08-17T00:51:24;4.77;;;3.80;;
4311;SDS011;2169;49.086;9.284;2023-08-17T00:53:52;5.47;;;2.90;;
4311;SDS011;2169;49.086;9.284;2023-08-17T00:56:21;4.60;;;3.20;;
4311;SDS011;2169;49.086;9.284;2023-08-17T00:58:49;3.83;;;2.63;;
4311;SDS011;2169;49.086;9.284;2023-08-17T01:01:16;6.80;;;2.80;;
4311;SDS011;2169;49.086;9.284;2023-08-17T01:03:44;5.90;;;2.40;;
4311;SDS011;2169;49.086;9.284;2023-08-17T01:06:12;3.80;;;3.50;;
4311;SDS011;2169;49.086;9.284;2023-08-17T01:08:39;3.00;;;2.60;;
4311;SDS011;2169;49.086;9.284;2023-08-17T01:11:11;5.10;;;3.00;;
4311;SDS011;2169;49.086;9.284;2023-08-17T01:13:47;6.17;;;4.17;;
4311;SDS011;2169;49.086;9.284;2023-08-17T01:16:21;5.13;;;4.17;;
4311;SDS011;2169;49.086;9.284;2023-08-17T01:18:51;3.60;;;3.07;;
4311;SDS011;2169;49.086;9.284;2023-08-17T01:21:22;5.37;;;4.00;;
4311;SDS011;2169;49.086;9.284;2023-08-17T01:23:52;3.83;;;3.03;;
4311;SDS011;2169;49.086;9.284;2023-08-17T01:26:24;3.77;;;3.30;;
4311;SDS011;2169;49.086;9.284;2023-08-17T01:28:51;5.83;;;4.03;;
4311;SDS011;2169;49.086;9.284;2023-08-17T01:31:19;5.20;;;4.70;;
4311;SDS011;2169;49.086;9.284;2023-08-17T01:33:50;10.13;;;4.70;;
4311;SDS011;2169;49.086;9.284;2023-08-17T01:36:22;4.87;;;4.37;;
4311;SDS011;2169;49.086;9.284;2023-08-17T01:38:54;4.40;;;4.00;;
4311;SDS011;2169;49.086;9.284;2023-08-17T01:41:23;6.30;;;4.47;;
4311;SDS011;2169;49.086;9.284;2023-08-17T01:43:52;6.87;;;3.30;;
4311;SDS011;2169;49.086;9.284;2023-08-17T01:46:20;7.87;;;5.03;;
4311;SDS011;2169;49.086;9.284;2023-08-17T01:48:47;6.87;;;3.80;;
4311;SDS011;2169;49.086;9.284;2023-08-17T01:51:16;6.47;;;4.10;;
4311;SDS011;2169;49.086;9.284;2023-08-17T01:53:44;9.53;;;3.90;;
4311;SDS011;2169;49.086;9.284;2023-08-17T01:56:12;3.83;;;3.50;;
4311;SDS011;2169;49.086;9.284;2023-08-17T01:58:39;4.03;;;3.63;;
4311;SDS011;2169;49.086;9.284;2023-08-17T02:01:07;4.10;;;3.77;;
4311;SDS011;2169;49.086;9.284;2023-08-17T02:03:34;5.10;;;3.30;;
4311;SDS011;2169;49.086;9.284;2023-08-17T02:06:01;4.03;;;3.60;;
4311;SDS011;2169;49.086;9.284;2023-08-17T02:08:29;2.90;;;2.70;;
4311;SDS011;2169;49.086;9.284;2023-08-17T02:10:56;6.80;;;3.47;;
4311;SDS011;2169;49.086;9.284;2023-08-17T02:13:24;3.17;;;2.83;;
4311;SDS011;2169;49.086;9.284;2023-08-17T02:15:52;3.77;;;3.50;;
4311;SDS011;2169;49.086;9.284;2023-08-17T02:18:19;2.43;;;2.23;;
4311;SDS011;2169;49.086;9.284;2023-08-17T02:20:46;3.40;;;3.10;;
4311;SDS011;2169;49.086;9.284;2023-08-17T02:23:13;3.63;;;3.33;;
4311;SDS011;2169;49.086;9.284;2023-08-17T02:25:40;10.30;;;3.90;;
4311;SDS011;2169;49.086;9.284;2023-08-17T02:28:07;5.63;;;3.13;;
4311;SDS011;2169;49.086;9.284;2023-08-17T02:30:35;5.40;;;3.50;;
4311;SDS011;2169;49.086;9.284;2023-08-17T02:33:03;5.60;;;3.20;;
4311;SDS011;2169;49.086;9.284;2023-08-17T02:35:30;3.77;;;2.80;;
4311;SDS011;2169;49.086;9.284;2023-08-17T02:37:57;4.17;;;3.00;;
4311;SDS011;2169;49.086;9.284;2023-08-17T02:40:24;13.20;;;3.37;;
4311;SDS011;2169;49.086;9.284;2023-08-17T02:42:51;4.47;;;4.00;;
4311;SDS011;2169;49.086;9.284;2023-08-17T02:45:18;6.37;;;4.20;;
4311;SDS011;2169;49.086;9.284;2023-08-17T02:47:46;4.83;;;3.50;;
4311;SDS011;2169;49.086;9.284;2023-08-17T02:50:13;5.93;;;4.03;;
4311;SDS011;2169;49.086;9.284;2023-08-17T02:52:40;5.43;;;4.10;;
4311;SDS011;2169;49.086;9.284;2023-08-17T02:55:08;4.23;;;3.97;;
4311;SDS011;2169;49.086;9.284;2023-08-17T02:57:35;5.43;;;4.87;;
4311;SDS011;2169;49.086;9.284;2023-08-17T03:00:02;4.20;;;3.63;;
4311;SDS011;2169;49.086;9.284;2023-08-17T03:02:30;5.30;;;4.90;;
4311;SDS011;2169;49.086;9.284;2023-08-17T03:04:58;4.37;;;3.97;;
4311;SDS011;2169;49.086;9.284;2023-08-17T03:07:25;17.77;;;3.50;;
4311;SDS011;2169;49.086;9.284;2023-08-17T03:09:52;4.73;;;4.20;;
4311;SDS011;2169;49.086;9.284;2023-08-17T03:12:19;5.63;;;4.83;;
4311;SDS011;2169;49.086;9.284;2023-08-17T03:14:45;6.90;;;4.43;;
4311;SDS011;2169;49.086;9.284;2023-08-17T03:17:12;8.17;;;4.50;;
4311;SDS011;2169;49.086;9.284;2023-08-17T03:19:39;4.87;;;3.37;;
4311;SDS011;2169;49.086;9.284;2023-08-17T03:22:08;4.20;;;3.50;;
4311;SDS011;2169;49.086;9.284;2023-08-17T03:24:35;7.13;;;3.30;;
4311;SDS011;2169;49.086;9.284;2023-08-17T03:27:02;7.10;;;3.67;;
4311;SDS011;2169;49.086;9.284;2023-08-17T03:29:29;6.33;;;3.60;;
4311;SDS011;2169;49.086;9.284;2023-08-17T03:31:56;5.80;;;2.87;;
4311;SDS011;2169;49.086;9.284;2023-08-17T03:34:23;9.67;;;4.50;;
4311;SDS011;2169;49.086;9.284;2023-08-17T03:36:50;3.93;;;3.60;;
4311;SDS011;2169;49.086;9.284;2023-08-17T03:39:21;6.73;;;4.57;;
4311;SDS011;2169;49.086;9.284;2023-08-17T03:41:48;3.30;;;3.00;;
4311;SDS011;2169;49.086;9.284;2023-08-17T03:44:15;3.00;;;2.80;;
4311;SDS011;2169;49.086;9.284;2023-08-17T03:46:42;3.00;;;2.77;;
4311;SDS011;2169;49.086;9.284;2023-08-17T03:49:09;9.03;;;4.00;;
4311;SDS011;2169;49.086;9.284;2023-08-17T03:51:36;4.43;;;3.87;;
4311;SDS011;2169;49.086;9.284;2023-08-17T03:54:03;10.83;;;3.33;;
4311;SDS011;2169;49.086;9.284;2023-08-17T03:56:32;4.43;;;4.03;;
4311;SDS011;2169;49.086;9.284;2023-08-17T03:58:59;4.30;;;3.90;;
4311;SDS011;2169;49.086;9.284;2023-08-17T04:01:26;7.87;;;4.03;;
4311;SDS011;2169;49.086;9.284;2023-08-17T04:03:53;5.20;;;3.70;;
4311;SDS011;2169;49.086;9.284;2023-08-17T04:06:21;3.90;;;3.60;;
4311;SDS011;2169;49.086;9.284;2023-08-17T04:08:48;6.57;;;3.93;;
4311;SDS011;2169;49.086;9.284;2023-08-17T04:11:15;4.10;;;3.53;;
4311;SDS011;2169;49.086;9.284;2023-08-17T04:13:43;7.43;;;3.77;;
4311;SDS011;2169;49.086;9.284;2023-08-17T04:16:10;4.20;;;3.80;;
4311;SDS011;2169;49.086;9.284;2023-08-17T04:18:37;3.97;;;3.67;;
4311;SDS011;2169;49.086;9.284;2023-08-17T04:21:04;11.83;;;4.77;;
4311;SDS011;2169;49.086;9.284;2023-08-17T04:23:32;6.10;;;3.37;;
4311;SDS011;2169;49.086;9.284;2023-08-17T04:26:00;6.33;;;4.07;;
4311;SDS011;2169;49.086;9.284;2023-08-17T04:28:27;5.60;;;3.50;;
4311;SDS011;2169;49.086;9.284;2023-08-17T04:30:55;4.13;;;3.73;;
4311;SDS011;2169;49.086;9.284;2023-08-17T04:33:23;9.37;;;3.13;;
4311;SDS011;2169;49.086;9.284;2023-08-17T04:35:50;6.45;;;4.75;;
4311;SDS011;2169;49.086;9.284;2023-08-17T04:38:17;4.80;;;4.30;;
4311;SDS011;2169;49.086;9.284;2023-08-17T04:40:46;6.63;;;5.00;;
4311;SDS011;2169;49.086;9.284;2023-08-17T04:43:13;11.37;;;4.30;;
4311;SDS011;2169;49.086;9.284;2023-08-17T04:45:40;4.10;;;3.70;;
4311;SDS011;2169;49.086;9.284;2023-08-17T04:48:09;4.67;;;4.33;;
4311;SDS011;2169;49.086;9.284;2023-08-17T04:50:36;6.50;;;4.50;;
4311;SDS011;2169;49.086;9.284;2023-08-17T04:53:03;5.77;;;3.90;;
4311;SDS011;2169;49.086;9.284;2023-08-17T04:55:30;4.93;;;4.43;;
4311;SDS011;2169;49.086;9.284;2023-08-17T04:57:57;8.80;;;4.70;;
4311;SDS011;2169;49.086;9.284;2023-08-17T05:00:25;11.17;;;5.07;;
4311;SDS011;2169;49.086;9.284;2023-08-17T05:02:53;4.40;;;3.80;;
4311;SDS011;2169;49.086;9.284;2023-08-17T05:05:22;6.50;;;5.83;;
4311;SDS011;2169;49.086;9.284;2023-08-17T05:07:49;6.33;;;5.73;;
4311;SDS011;2169;49.086;9.284;2023-08-17T05:10:16;5.50;;;4.87;;
4311;SDS011;2169;49.086;9.284;2023-08-17T05:12:43;5.50;;;4.57;;
4311;SDS011;2169;49.086;9.284;2023-08-17T05:15:10;13.90;;;5.80;;
4311;SDS011;2169;49.086;9.284;2023-08-17T05:17:37;12.13;;;6.50;;
4311;SDS011;2169;49.086;9.284;2023-08-17T05:20:04;8.80;;;5.27;;
4311;SDS011;2169;49.086;9.284;2023-08-17T05:22:34;7.00;;;5.53;;
4311;SDS011;2169;49.086;9.284;2023-08-17T05:25:01;12.57;;;7.17;;
4311;SDS011;2169;49.086;9.284;2023-08-17T05:27:29;6.67;;;5.53;;
4311;SDS011;2169;49.086;9.284;2023-08-17T05:29:56;7.63;;;5.87;;
4311;SDS011;2169;49.086;9.284;2023-08-17T05:32:23;13.40;;;5.77;;
4311;SDS011;2169;49.086;9.284;2023-08-17T05:34:50;8.87;;;6.77;;
4311;SDS011;2169;49.086;9.284;2023-08-17T05:37:17;8.27;;;6.03;;
4311;SDS011;2169;49.086;9.284;2023-08-17T05:39:45;7.40;;;5.47;;
4311;SDS011;2169;49.086;9.284;2023-08-17T05:42:12;16.30;;;5.67;;
4311;SDS011;2169;49.086;9.284;2023-08-17T05:44:39;13.13;;;6.70;;
4311;SDS011;2169;49.086;9.284;2023-08-17T05:47:06;13.50;;;8.10;;
4311;SDS011;2169;49.086;9.284;2023-08-17T05:49:33;7.30;;;6.33;;
4311;SDS011;2169;49.086;9.284;2023-08-17T05:52:00;8.50;;;6.90;;
4311;SDS011;2169;49.086;9.284;2023-08-17T05:54:27;10.77;;;6.90;;
4311;SDS011;2169;49.086;9.284;2023-08-17T05:56:55;11.33;;;7.30;;
4311;SDS011;2169;49.086;9.284;2023-08-17T05:59:22;7.80;;;6.57;;
4311;SDS011;2169;49.086;9.284;2023-08-17T06:01:49;12.33;;;6.70;;
4311;SDS011;2169;49.086;9.284;2023-08-17T06:04:16;12.73;;;7.20;;
4311;SDS011;2169;49.086;9.284;2023-08-17T06:06:44;9.87;;;6.60;;
4311;SDS011;2169;49.086;9.284;2023-08-17T06:09:11;13.50;;;7.80;;
4311;SDS011;2169;49.086;9.284;2023-08-17T06:11:39;11.17;;;6.90;;
4311;SDS011;2169;49.086;9.284;2023-08-17T06:14:07;14.57;;;7.23;;
4311;SDS011;2169;49.086;9.284;2023-08-17T06:16:34;7.70;;;6.90;;
4311;SDS011;2169;49.086;9.284;2023-08-17T06:19:01;11.67;;;6.47;;
4311;SDS011;2169;49.086;9.284;2023-08-17T06:21:28;16.40;;;7.00;;
4311;SDS011;2169;49.086;9.284;2023-08-17T06:23:55;9.60;;;6.00;;
4311;SDS011;2169;49.086;9.284;2023-08-17T06:26:22;9.47;;;6.77;;
4311;SDS011;2169;49.086;9.284;2023-08-17T06:28:49;14.13;;;7.50;;
4311;SDS011;2169;49.086;9.284;2023-08-17T06:31:18;7.40;;;6.57;;
4311;SDS011;2169;49.086;9.284;2023-08-17T06:33:45;14.83;;;8.70;;
4311;SDS011;2169;49.086;9.284;2023-08-17T06:36:12;10.10;;;7.73;;
4311;SDS011;2169;49.086;9.284;2023-08-17T06:38:41;14.17;;;7.73;;
4311;SDS011;2169;49.086;9.284;2023-08-17T06:41:08;11.17;;;8.47;;
4311;SDS011;2169;49.086;9.284;2023-08-17T06:43:35;12.77;;;7.13;;
4311;SDS011;2169;49.086;9.284;2023-08-17T06:46:02;16.53;;;7.53;;
4311;SDS011;2169;49.086;9.284;2023-08-17T06:48:30;9.87;;;8.27;;
4311;SDS011;2169;49.086;9.284;2023-08-17T06:50:57;18.93;;;8.30;;
4311;SDS011;2169;49.086;9.284;2023-08-17T06:53:30;11.93;;;7.93;;
4311;SDS011;2169;49.086;9.284;2023-08-17T06:55:57;15.50;;;8.87;;
4311;SDS011;2169;49.086;9.284;2023-08-17T06:58:24;10.63;;;7.53;;
4311;SDS011;2169;49.086;9.284;2023-08-17T07:00:51;12.30;;;7.27;;
4311;SDS011;2169;49.086;9.284;2023-08-17T07:03:18;18.17;;;8.50;;
4311;SDS011;2169;49.086;9.284;2023-08-17T07:05:47;14.77;;;8.87;;
4311;SDS011;2169;49.086;9.284;2023-08-17T07:08:14;17.00;;;9.10;;
4311;SDS011;2169;49.086;9.284;2023-08-17T07:10:42;14.13;;;9.30;;
4311;SDS011;2169;49.086;9.284;2023-08-17T07:13:08;17.00;;;7.70;;
4311;SDS011;2169;49.086;9.284;2023-08-17T07:15:36;10.27;;;8.03;;
4311;SDS011;2169;49.086;9.284;2023-08-17T07:18:03;20.73;;;10.10;;
4311;SDS011;2169;49.086;9.284;2023-08-17T07:20:31;11.03;;;8.43;;
4311;SDS011;2169;49.086;9.284;2023-08-17T07:22:59;12.60;;;8.13;;
4311;SDS011;2169;49.086;9.284;2023-08-17T07:25:26;13.60;;;8.57;;
4311;SDS011;2169;49.086;9.284;2023-08-17T07:27:53;12.07;;;8.40;;
4311;SDS011;2169;49.086;9.284;2023-08-17T07:30:27;14.63;;;9.37;;
4311;SDS011;2169;49.086;9.284;2023-08-17T07:32:56;9.87;;;7.77;;
4311;SDS011;2169;49.086;9.284;2023-08-17T07:35:23;15.80;;;8.80;;
4311;SDS011;2169;49.086;9.284;2023-08-17T07:37:50;14.60;;;9.53;;
4311;SDS011;2169;49.086;9.284;2023-08-17T07:40:20;14.07;;;9.77;;
4311;SDS011;2169;49.086;9.284;2023-08-17T07:42:46;15.43;;;10.30;;
4311;SDS011;2169;49.086;9.284;2023-08-17T07:45:14;14.20;;;9.80;;
4311;SDS011;2169;49.086;9.284;2023-08-17T07:47:42;13.93;;;9.70;;
4311;SDS011;2169;49.086;9.284;2023-08-17T07:50:11;11.47;;;8.17;;
4311;SDS011;2169;49.086;9.284;2023-08-17T07:52:41;12.40;;;8.07;;
4311;SDS011;2169;49.086;9.284;2023-08-17T07:55:08;15.13;;;10.37;;
4311;SDS011;2169;49.086;9.284;2023-08-17T07:57:36;11.40;;;8.30;;
4311;SDS011;2169;49.086;9.284;2023-08-17T08:00:06;11.70;;;8.10;;
4311;SDS011;2169;49.086;9.284;2023-08-17T08:02:34;10.50;;;8.77;;
4311;SDS011;2169;49.086;9.284;2023-08-17T08:05:01;12.77;;;9.87;;
4311;SDS011;2169;49.086;9.284;2023-08-17T08:07:29;15.87;;;9.47;;
4311;SDS011;2169;49.086;9.284;2023-08-17T08:09:56;13.90;;;9.57;;
4311;SDS011;2169;49.086;9.284;2023-08-17T08:12:26;19.03;;;9.00;;
4311;SDS011;2169;49.086;9.284;2023-08-17T08:14:55;12.93;;;9.07;;
4311;SDS011;2169;49.086;9.284;2023-08-17T08:17:23;16.93;;;8.60;;
4311;SDS011;2169;49.086;9.284;2023-08-17T08:19:50;13.70;;;7.97;;
4311;SDS011;2169;49.086;9.284;2023-08-17T08:22:17;11.27;;;8.77;;
4311;SDS011;2169;49.086;9.284;2023-08-17T08:24:44;15.27;;;8.40;;
4311;SDS011;2169;49.086;9.284;2023-08-17T08:27:11;12.43;;;8.70;;
4311;SDS011;2169;49.086;9.284;2023-08-17T08:29:46;12.53;;;11.23;;
4311;SDS011;2169;49.086;9.284;2023-08-17T08:32:14;13.87;;;8.93;;
4311;SDS011;2169;49.086;9.284;2023-08-17T08:34:41;15.63;;;8.90;;
4311;SDS011;2169;49.086;9.284;2023-08-17T08:37:08;13.70;;;8.33;;
4311;SDS011;2169;49.086;9.284;2023-08-17T08:39:47;10.37;;;7.97;;
4311;SDS011;2169;49.086;9.284;2023-08-17T08:42:19;13.70;;;10.07;;
4311;SDS011;2169;49.086;9.284;2023-08-17T08:44:50;15.87;;;10.50;;
4311;SDS011;2169;49.086;9.284;2023-08-17T08:47:19;15.83;;;9.10;;
4311;SDS011;2169;49.086;9.284;2023-08-17T08:49:49;14.07;;;9.17;;
4311;SDS011;2169;49.086;9.284;2023-08-17T08:52:26;18.67;;;9.47;;
4311;SDS011;2169;49.086;9.284;2023-08-17T08:55:01;16.03;;;7.67;;
4311;SDS011;2169;49.086;9.284;2023-08-17T08:57:34;16.07;;;8.33;;
4311;SDS011;2169;49.086;9.284;2023-08-17T09:00:02;9.40;;;6.90;;
4311;SDS011;2169;49.086;9.284;2023-08-17T09:02:31;12.10;;;8.63;;
4311;SDS011;2169;49.086;9.284;2023-08-17T09:04:59;26.53;;;8.63;;
4311;SDS011;2169;49.086;9.284;2023-08-17T09:07:27;8.70;;;7.00;;
4311;SDS011;2169;49.086;9.284;2023-08-17T09:09:56;29.10;;;8.70;;
4311;SDS011;2169;49.086;9.284;2023-08-17T09:12:24;11.93;;;7.47;;
4311;SDS011;2169;49.086;9.284;2023-08-17T09:14:51;7.93;;;6.53;;
4311;SDS011;2169;49.086;9.284;2023-08-17T09:17:22;8.50;;;7.03;;
4311;SDS011;2169;49.086;9.284;2023-08-17T09:19:51;10.00;;;6.17;;
4311;SDS011;2169;49.086;9.284;2023-08-17T09:22:22;9.20;;;7.20;;
4311;SDS011;2169;49.086;9.284;2023-08-17T09:24:50;7.50;;;6.40;;
4311;SDS011;2169;49.086;9.284;2023-08-17T09:27:20;9.17;;;7.57;;
4311;SDS011;2169;49.086;9.284;2023-08-17T09:29:47;12.43;;;7.27;;
4311;SDS011;2169;49.086;9.284;2023-08-17T09:32:14;6.60;;;5.67;;
4311;SDS011;2169;49.086;9.284;2023-08-17T09:34:42;10.47;;;6.10;;
4311;SDS011;2169;49.086;9.284;2023-08-17T09:37:12;9.93;;;6.10;;
4311;SDS011;2169;49.086;9.284;2023-08-17T09:39:39;9.60;;;6.03;;
4311;SDS011;2169;49.086;9.284;2023-08-17T09:42:07;14.60;;;5.87;;
4311;SDS011;2169;49.086;9.284;2023-08-17T09:44:37;7.53;;;6.17;;
4311;SDS011;2169;49.086;9.284;2023-08-17T09:47:04;12.17;;;7.17;;
4311;SDS011;2169;49.086;9.284;2023-08-17T09:49:31;6.47;;;5.87;;
4311;SDS011;2169;49.086;9.284;2023-08-17T09:51:59;8.77;;;6.50;;
4311;SDS011;2169;49.086;9.284;2023-08-17T09:54:30;6.20;;;5.60;;
4311;SDS011;2169;49.086;9.284;2023-08-17T09:56:57;5.63;;;5.00;;
4311;SDS011;2169;49.086;9.284;2023-08-17T09:59:26;4.70;;;4.30;;
4311;SDS011;2169;49.086;9.284;2023-08-17T10:01:53;6.03;;;5.03;;
4311;SDS011;2169;49.086;9.284;2023-08-17T10:04:22;6.33;;;5.67;;
4311;SDS011;2169;49.086;9.284;2023-08-17T10:06:51;6.57;;;5.87;;
4311;SDS011;2169;49.086;9.284;2023-08-17T10:09:23;7.03;;;5.20;;
4311;SDS011;2169;49.086;9.284;2023-08-17T10:11:55;6.00;;;5.40;;
4311;SDS011;2169;49.086;9.284;2023-08-17T10:14:26;8.40;;;5.53;;
4311;SDS011;2169;49.086;9.284;2023-08-17T10:17:00;7.20;;;6.00;;
4311;SDS011;2169;49.086;9.284;2023-08-17T10:19:37;6.80;;;6.20;;
4311;SDS011;2169;49.086;9.284;2023-08-17T10:22:11;7.40;;;5.37;;
4311;SDS011;2169;49.086;9.284;2023-08-17T10:24:47;5.63;;;5.10;;
4311;SDS011;2169;49.086;9.284;2023-08-17T10:27:17;6.77;;;6.07;;
4311;SDS011;2169;49.086;9.284;2023-08-17T10:29:47;8.80;;;4.70;;
4311;SDS011;2169;49.086;9.284;2023-08-17T10:32:16;5.53;;;4.60;;
4311;SDS011;2169;49.086;9.284;2023-08-17T10:34:43;9.37;;;5.50;;
4311;SDS011;2169;49.086;9.284;2023-08-17T10:37:11;5.77;;;4.53;;
4311;SDS011;2169;49.086;9.284;2023-08-17T10:39:44;9.73;;;5.70;;
4311;SDS011;2169;49.086;9.284;2023-08-17T10:42:12;7.43;;;5.30;;
4311;SDS011;2169;49.086;9.284;2023-08-17T10:44:42;8.90;;;5.67;;
4311;SDS011;2169;49.086;9.284;2023-08-17T10:47:22;5.63;;;5.10;;
4311;SDS011;2169;49.086;9.284;2023-08-17T10:49:50;5.80;;;4.90;;
4311;SDS011;2169;49.086;9.284;2023-08-17T10:52:27;5.00;;;4.60;;
4311;SDS011;2169;49.086;9.284;2023-08-17T10:54:58;5.00;;;4.50;;
4311;SDS011;2169;49.086;9.284;2023-08-17T10:57:29;8.53;;;5.00;;
4311;SDS011;2169;49.086;9.284;2023-08-17T11:00:12;8.27;;;6.87;;
4311;SDS011;2169;49.086;9.284;2023-08-17T11:02:42;8.53;;;6.67;;
4311;SDS011;2169;49.086;9.284;2023-08-17T11:05:10;10.97;;;6.30;;
4311;SDS011;2169;49.086;9.284;2023-08-17T11:07:39;8.10;;;6.87;;
4311;SDS011;2169;49.086;9.284;2023-08-17T11:10:26;10.80;;;6.27;;
4311;SDS011;2169;49.086;9.284;2023-08-17T11:12:55;7.97;;;4.83;;
4311;SDS011;2169;49.086;9.284;2023-08-17T11:15:30;11.83;;;6.80;;
4311;SDS011;2169;49.086;9.284;2023-08-17T11:18:04;6.40;;;5.80;;
4311;SDS011;2169;49.086;9.284;2023-08-17T11:20:33;9.10;;;6.60;;
4311;SDS011;2169;49.086;9.284;2023-08-17T11:23:00;9.20;;;6.53;;
4311;SDS011;2169;49.086;9.284;2023-08-17T11:25:27;5.73;;;5.27;;
4311;SDS011;2169;49.086;9.284;2023-08-17T11:27:54;11.40;;;6.90;;
4311;SDS011;2169;49.086;9.284;2023-08-17T11:30:22;5.77;;;5.30;;
4311;SDS011;2169;49.086;9.284;2023-08-17T11:32:53;16.60;;;4.53;;
4311;SDS011;2169;49.086;9.284;2023-08-17T11:35:21;6.73;;;4.63;;
4311;SDS011;2169;49.086;9.284;2023-08-17T11:37:49;5.00;;;4.20;;
4311;SDS011;2169;49.086;9.284;2023-08-17T11:40:16;15.33;;;4.83;;
4311;SDS011;2169;49.086;9.284;2023-08-17T11:42:44;7.80;;;6.20;;
4311;SDS011;2169;49.086;9.284;2023-08-17T11:45:20;5.87;;;5.23;;
4311;SDS011;2169;49.086;9.284;2023-08-17T11:47:47;4.77;;;4.37;;
4311;SDS011;2169;49.086;9.284;2023-08-17T11:50:16;6.10;;;4.60;;
4311;SDS011;2169;49.086;9.284;2023-08-17T11:52:44;5.87;;;5.30;;
4311;SDS011;2169;49.086;9.284;2023-08-17T11:55:13;5.73;;;4.20;;
4311;SDS011;2169;49.086;9.284;2023-08-17T11:57:44;10.90;;;5.37;;
4311;SDS011;2169;49.086;9.284;2023-08-17T12:00:16;6.43;;;4.47;;
4311;SDS011;2169;49.086;9.284;2023-08-17T12:02:46;6.70;;;5.43;;
4311;SDS011;2169;49.086;9.284;2023-08-17T12:05:20;6.83;;;5.30;;
4311;SDS011;2169;49.086;9.284;2023-08-17T12:07:48;17.13;;;5.30;;
4311;SDS011;2169;49.086;9.284;2023-08-17T12:10:17;7.10;;;5.67;;
4311;SDS011;2169;49.086;9.284;2023-08-17T12:12:44;6.03;;;5.13;;
4311;SDS011;2169;49.086;9.284;2023-08-17T12:15:13;4.77;;;4.37;;
4311;SDS011;2169;49.086;9.284;2023-08-17T12:17:44;5.30;;;4.90;;
4311;SDS011;2169;49.086;9.284;2023-08-17T12:20:16;7.13;;;5.43;;
4311;SDS011;2169;49.086;9.284;2023-08-17T12:22:45;4.23;;;3.83;;
4311;SDS011;2169;49.086;9.284;2023-08-17T12:25:13;6.37;;;5.83;;
4311;SDS011;2169;49.086;9.284;2023-08-17T12:27:40;6.80;;;4.17;;
4311;SDS011;2169;49.086;9.284;2023-08-17T12:30:12;4.10;;;2.90;;
4311;SDS011;2169;49.086;9.284;2023-08-17T12:32:40;4.40;;;4.10;;
4311;SDS011;2169;49.086;9.284;2023-08-17T12:35:08;4.30;;;3.40;;
4311;SDS011;2169;49.086;9.284;2023-08-17T12:37:35;4.33;;;3.93;;
4311;SDS011;2169;49.086;9.284;2023-08-17T12:40:04;2.80;;;2.70;;
4311;SDS011;2169;49.086;9.284;2023-08-17T12:42:33;2.60;;;2.50;;
4311;SDS011;2169;49.086;9.284;2023-08-17T12:45:00;3.03;;;2.83;;
4311;SDS011;2169;49.086;9.284;2023-08-17T12:47:27;4.37;;;3.97;;
4311;SDS011;2169;49.086;9.284;2023-08-17T12:49:54;7.00;;;4.13;;
4311;SDS011;2169;49.086;9.284;2023-08-17T12:52:21;5.67;;;4.53;;
4311;SDS011;2169;49.086;9.284;2023-08-17T12:54:48;3.87;;;3.67;;
4311;SDS011;2169;49.086;9.284;2023-08-17T12:57:16;9.63;;;4.70;;
4311;SDS011;2169;49.086;9.284;2023-08-17T12:59:44;5.10;;;4.30;;
4311;SDS011;2169;49.086;9.284;2023-08-17T13:02:11;4.30;;;3.00;;
4311;SDS011;2169;49.086;9.284;2023-08-17T13:04:39;3.93;;;3.67;;
4311;SDS011;2169;49.086;9.284;2023-08-17T13:07:06;5.60;;;4.40;;
4311;SDS011;2169;49.086;9.284;2023-08-17T13:09:34;5.00;;;4.03;;
4311;SDS011;2169;49.086;9.284;2023-08-17T13:12:04;4.50;;;4.20;;
4311;SDS011;2169;49.086;9.284;2023-08-17T13:14:34;5.80;;;4.60;;
4311;SDS011;2169;49.086;9.284;2023-08-17T13:17:00;8.33;;;3.83;;
4311;SDS011;2169;49.086;9.284;2023-08-17T13:19:28;2.83;;;2.63;;
4311;SDS011;2169;49.086;9.284;2023-08-17T13:21:55;5.20;;;4.27;;
4311;SDS011;2169;49.086;9.284;2023-08-17T13:24:24;3.30;;;3.10;;
4311;SDS011;2169;49.086;9.284;2023-08-17T13:26:57;3.00;;;2.70;;
4311;SDS011;2169;49.086;9.284;2023-08-17T13:29:24;3.70;;;3.40;;
4311;SDS011;2169;49.086;9.284;2023-08-17T13:31:53;4.03;;;3.63;;
4311;SDS011;2169;49.086;9.284;2023-08-17T13:34:20;3.53;;;3.23;;
4311;SDS011;2169;49.086;9.284;2023-08-17T13:36:47;3.87;;;3.57;;
4311;SDS011;2169;49.086;9.284;2023-08-17T13:39:15;3.00;;;2.80;;
4311;SDS011;2169;49.086;9.284;2023-08-17T13:41:42;6.00;;;3.97;;
4311;SDS011;2169;49.086;9.284;2023-08-17T13:44:09;8.83;;;3.40;;
4311;SDS011;2169;49.086;9.284;2023-08-17T13:46:36;6.67;;;4.03;;
4311;SDS011;2169;49.086;9.284;2023-08-17T13:49:10;4.20;;;3.70;;
4311;SDS011;2169;49.086;9.284;2023-08-17T13:51:37;3.90;;;3.60;;
4311;SDS011;2169;49.086;9.284;2023-08-17T13:54:04;4.07;;;3.67;;
4311;SDS011;2169;49.086;9.284;2023-08-17T13:56:31;4.10;;;3.80;;
4311;SDS011;2169;49.086;9.284;2023-08-17T13:58:57;8.40;;;3.30;;
4311;SDS011;2169;49.086;9.284;2023-08-17T14:01:24;16.07;;;3.53;;
4311;SDS011;2169;49.086;9.284;2023-08-17T14:03:54;2.93;;;2.73;;
4311;SDS011;2169;49.086;9.284;2023-08-17T14:06:23;3.60;;;3.33;;
4311;SDS011;2169;49.086;9.284;2023-08-17T14:08:50;10.47;;;3.60;;
4311;SDS011;2169;49.086;9.284;2023-08-17T14:11:17;4.43;;;3.23;;
4311;SDS011;2169;49.086;9.284;2023-08-17T14:13:44;6.93;;;3.43;;
4311;SDS011;2169;49.086;9.284;2023-08-17T14:16:11;5.70;;;3.57;;
4311;SDS011;2169;49.086;9.284;2023-08-17T14:18:42;3.17;;;2.40;;
4311;SDS011;2169;49.086;9.284;2023-08-17T14:21:09;4.20;;;2.93;;
4311;SDS011;2169;49.086;9.284;2023-08-17T14:23:38;2.87;;;2.67;;
4311;SDS011;2169;49.086;9.284;2023-08-17T14:26:06;3.80;;;3.50;;
4311;SDS011;2169;49.086;9.284;2023-08-17T14:28:33;3.13;;;2.80;;
4311;SDS011;2169;49.086;9.284;2023-08-17T14:31:02;3.87;;;3.47;;
4311;SDS011;2169;49.086;9.284;2023-08-17T14:33:30;5.23;;;3.20;;
4311;SDS011;2169;49.086;9.284;2023-08-17T14:35:57;6.10;;;3.67;;
4311;SDS011;2169;49.086;9.284;2023-08-17T14:38:24;4.23;;;3.07;;
4311;SDS011;2169;49.086;9.284;2023-08-17T14:40:53;3.30;;;2.90;;
4311;SDS011;2169;49.086;9.284;2023-08-17T14:43:21;5.90;;;2.87;;
4311;SDS011;2169;49.086;9.284;2023-08-17T14:45:48;3.77;;;3.10;;
4311;SDS011;2169;49.086;9.284;2023-08-17T14:48:15;3.10;;;2.93;;
4311;SDS011;2169;49.086;9.284;2023-08-17T14:50:42;2.77;;;2.50;;
4311;SDS011;2169;49.086;9.284;2023-08-17T14:53:09;3.80;;;3.03;;
4311;SDS011;2169;49.086;9.284;2023-08-17T14:55:44;5.63;;;4.83;;
4311;SDS011;2169;49.086;9.284;2023-08-17T14:58:13;4.00;;;3.70;;
4311;SDS011;2169;49.086;9.284;2023-08-17T15:00:41;3.17;;;2.87;;
4311;SDS011;2169;49.086;9.284;2023-08-17T15:03:08;2.40;;;2.20;;
4311;SDS011;2169;49.086;9.284;2023-08-17T15:05:36;2.90;;;2.60;;
4311;SDS011;2169;49.086;9.284;2023-08-17T15:08:06;4.50;;;1.97;;
4311;SDS011;2169;49.086;9.284;2023-08-17T15:10:33;3.73;;;2.53;;
4311;SDS011;2169;49.086;9.284;2023-08-17T15:13:01;3.83;;;2.80;;
4311;SDS011;2169;49.086;9.284;2023-08-17T15:15:30;2.90;;;2.70;;
4311;SDS011;2169;49.086;9.284;2023-08-17T15:17:57;4.90;;;4.20;;
4311;SDS011;2169;49.086;9.284;2023-08-17T15:20:28;4.37;;;3.97;;